This is the latest recevied weather packets stored in our database for station/object DH2PG-6. If no packets are shown the sender has not sent any weather packets the latest 10 day(s).
| Time | Temp. | Humidity | Pressure | Rain* | Wind** | Luminosity | Snow |
|---|---|---|---|---|---|---|---|
| 1777658421 | 31.11° C | 20% | 1019.1 hPa | 0 mm | - | - | - |
| 1777658121 | 31.11° C | 19% | 1019.1 hPa | 0 mm | - | - | - |
| 1777657820 | 31.67° C | 19% | 1019.1 hPa | 0 mm | - | - | - |
| 1777657520 | 31.67° C | 19% | 1019 hPa | 0 mm | - | - | - |
| 1777657220 | 32.22° C | 19% | 1019.1 hPa | 0 mm | - | - | - |
| 1777656919 | 31.67° C | 19% | 1019 hPa | 0 mm | - | - | - |
| 1777656619 | 31.67° C | 19% | 1019.1 hPa | 0 mm | - | - | - |
| 1777656319 | 31.67° C | 20% | 1019.1 hPa | 0 mm | - | - | - |
| 1777655718 | 30° C | 21% | 1019 hPa | 0 mm | - | - | - |
| 1777655418 | 28.33° C | 23% | 1019.1 hPa | 0 mm | - | - | - |
| 1777655118 | 26.67° C | 24% | 1019.2 hPa | 0 mm | - | - | - |
| 1777654818 | 23.89° C | 27% | 1019.1 hPa | 0 mm | - | - | - |
| 1777654517 | 22.22° C | 28% | 1019.1 hPa | 0 mm | - | - | - |
| 1777653917 | 22.22° C | 26% | 1019.1 hPa | 0 mm | - | - | - |
| 1777653616 | 22.22° C | 28% | 1019.1 hPa | 0 mm | - | - | - |
| 1777653316 | 22.22° C | 28% | 1019.1 hPa | 0 mm | - | - | - |
| 1777653016 | 22.22° C | 28% | 1019.1 hPa | 0 mm | - | - | - |
| 1777652715 | 21.67° C | 28% | 1019.1 hPa | 0 mm | - | - | - |
| 1777652415 | 21.67° C | 28% | 1019.3 hPa | 0 mm | - | - | - |
| 1777652115 | 21.67° C | 28% | 1019.2 hPa | 0 mm | - | - | - |
| 1777651815 | 21.67° C | 28% | 1019.2 hPa | 0 mm | - | - | - |
| 1777651514 | 21.67° C | 28% | 1019.3 hPa | 0 mm | - | - | - |
| 1777651214 | 21.67° C | 28% | 1019.4 hPa | 0 mm | - | - | - |
| 1777650914 | 21.67° C | 28% | 1019.4 hPa | 0 mm | - | - | - |
| 1777650614 | 21.67° C | 27% | 1019.3 hPa | 0 mm | - | - | - |
* Rain latest hour (hover to see other rain measurements)
** Current wind speed in m/s (hover to see current wind gust speed)